Saginaw, Alabama
Current Conditions -  °F | °C
As of 12:53 PM on Monday 22 Dec 2014 (Local Time) from KEET Reporting Station
Light Rain Light Rain  
Wind Chill: 53°   Ceiling: 600
Heat Index: 53°   Visibility: 3mi
Dew Point: 52°   Wind: 8mph
Humidity: 96%   Direction: 130°SE
Pressure: 29.83"   Gusts: NA
Location:  33.22°N, 86.79°W
Report Text: KEET 221853Z AUTO 13007KT 3SM -RA BR OVC006 12/11 A2983 RMK AO2 RAB1755 SLP100 P0006 T01170111
Loading
Personal Weather Stations






























Interactive Weather Map New forecast layout! Learn more

10-Day Weather Forecast

Advertisements
Track Severe Weather on mobile